createdAt,value
2016-09-22T00:00:55.687Z,14.44
2016-09-22T00:01:57.336Z,14.45
2016-09-22T00:02:58.046Z,14.36
2016-09-22T00:03:58.747Z,14.45
2016-09-22T00:04:59.443Z,14.44
2016-09-22T00:06:00.425Z,14.44
2016-09-22T00:07:01.131Z,14.47
2016-09-22T00:08:01.816Z,14.53
2016-09-22T00:09:02.498Z,14.51
2016-09-22T00:10:03.595Z,14.63
2016-09-22T00:11:04.613Z,14.6
2016-09-22T00:12:05.394Z,14.59
2016-09-22T00:13:06.317Z,14.58
2016-09-22T00:14:07.077Z,14.65
2016-09-22T00:15:08.025Z,14.58
2016-09-22T00:16:08.835Z,14.59
2016-09-22T00:17:09.646Z,14.55
2016-09-22T00:18:10.455Z,14.47
2016-09-22T00:19:11.150Z,14.54
2016-09-22T00:20:11.840Z,14.59
2016-09-22T00:21:12.698Z,14.54
2016-09-22T00:22:13.416Z,14.58
2016-09-22T00:23:14.570Z,14.43
2016-09-22T00:24:15.281Z,14.41
2016-09-22T00:25:16.042Z,14.43
2016-09-22T00:26:16.780Z,14.47
2016-09-22T00:27:17.505Z,14.5
2016-09-22T00:28:18.235Z,14.43
2016-09-22T00:29:18.970Z,14.41
2016-09-22T00:30:19.729Z,14.4
2016-09-22T00:31:20.416Z,14.45
2016-09-22T00:32:21.114Z,14.48
2016-09-22T00:33:21.797Z,14.44
2016-09-22T00:34:22.485Z,14.45
2016-09-22T00:35:23.214Z,14.47
2016-09-22T00:36:24.057Z,14.48
2016-09-22T00:37:24.755Z,14.45
2016-09-22T00:38:25.480Z,14.43
2016-09-22T00:39:26.159Z,14.37
2016-09-22T00:40:28.539Z,14.4
2016-09-22T00:41:29.667Z,14.43
2016-09-22T00:42:30.701Z,14.28
2016-09-22T00:43:31.579Z,14.28
2016-09-22T00:44:32.284Z,14.37
2016-09-22T00:45:33.180Z,14.36
2016-09-22T00:46:33.889Z,14.3
2016-09-22T00:47:34.710Z,14.37
2016-09-22T00:48:36.741Z,14.36
2016-09-22T00:49:37.743Z,14.32
2016-09-22T00:50:38.899Z,14.3
2016-09-22T00:51:39.990Z,14.26
2016-09-22T00:52:40.861Z,14.12
2016-09-22T00:53:41.674Z,14.18
2016-09-22T00:54:42.363Z,14.1
2016-09-22T00:55:43.470Z,14.14
2016-09-22T00:56:44.393Z,14.17
2016-09-22T00:57:45.414Z,14.11
2016-09-22T00:58:46.320Z,14.14
2016-09-22T00:59:47.241Z,14.12
2016-09-22T01:00:47.921Z,14.11
2016-09-22T01:01:48.653Z,14.12
2016-09-22T01:02:49.353Z,14.05
2016-09-22T01:03:50.030Z,14
2016-09-22T01:04:50.712Z,14.04
2016-09-22T01:05:51.709Z,14.05
2016-09-22T01:06:52.400Z,13.99
2016-09-22T01:08:00.135Z,14
2016-09-22T01:09:01.405Z,13.99
2016-09-22T01:10:02.448Z,13.97
2016-09-22T01:11:03.433Z,13.87
2016-09-22T01:12:04.234Z,13.89
2016-09-22T01:13:05.055Z,13.86
2016-09-22T01:14:05.775Z,13.85
2016-09-22T01:15:06.485Z,13.86
2016-09-22T01:16:07.310Z,13.83
2016-09-22T01:17:08.088Z,13.75
2016-09-22T01:18:08.817Z,13.75
2016-09-22T01:19:09.571Z,13.75
2016-09-22T01:20:10.349Z,13.74
2016-09-22T01:21:11.077Z,13.75
2016-09-22T01:22:11.880Z,13.77
2016-09-22T01:23:12.623Z,13.7
2016-09-22T01:24:13.326Z,13.77
2016-09-22T01:25:14.072Z,13.68
2016-09-22T01:26:14.865Z,13.7
2016-09-22T01:27:15.575Z,13.78
2016-09-22T01:28:16.376Z,13.75
2016-09-22T01:29:17.249Z,13.75
2016-09-22T01:30:17.922Z,13.71
2016-09-22T01:31:18.605Z,13.71
2016-09-22T01:32:19.287Z,13.68
2016-09-22T01:33:20.004Z,13.75
2016-09-22T01:34:20.683Z,13.71
2016-09-22T01:35:21.358Z,13.74
2016-09-22T01:36:22.042Z,13.79
2016-09-22T01:37:22.739Z,13.65
2016-09-22T01:38:23.420Z,13.62
2016-09-22T01:39:24.100Z,13.63
2016-09-22T01:40:24.810Z,13.62
2016-09-22T01:41:25.500Z,13.67
2016-09-22T01:42:26.193Z,13.68
2016-09-22T01:43:26.884Z,13.63
2016-09-22T01:44:27.568Z,13.71
2016-09-22T01:45:28.260Z,13.6
2016-09-22T01:46:28.951Z,13.74
2016-09-22T01:47:29.630Z,13.68
2016-09-22T01:48:30.315Z,13.68
2016-09-22T01:49:31.012Z,13.63
2016-09-22T01:50:31.696Z,13.6
2016-09-22T01:51:32.381Z,13.56
2016-09-22T01:52:33.090Z,13.54
2016-09-22T01:53:33.792Z,13.54
2016-09-22T01:54:34.482Z,13.49
2016-09-22T01:55:35.159Z,13.38
2016-09-22T01:56:35.859Z,13.35
2016-09-22T01:57:36.544Z,13.5
2016-09-22T01:58:37.227Z,13.39
2016-09-22T01:59:37.911Z,13.41
2016-09-22T02:00:38.623Z,13.46
2016-09-22T02:01:39.328Z,13.52
2016-09-22T02:02:40.009Z,13.53
2016-09-22T02:03:40.692Z,13.5
2016-09-22T02:04:41.368Z,13.6
2016-09-22T02:05:42.044Z,13.54
2016-09-22T02:06:42.741Z,13.54
2016-09-22T02:07:43.429Z,13.54
2016-09-22T02:08:44.125Z,13.62
2016-09-22T02:09:44.812Z,13.52
2016-09-22T02:10:45.506Z,13.6
2016-09-22T02:11:46.204Z,13.59
2016-09-22T02:12:46.882Z,13.63
2016-09-22T02:13:47.594Z,13.53
2016-09-22T02:14:48.333Z,13.54
2016-09-22T02:15:49.020Z,13.46
2016-09-22T02:16:49.713Z,13.42
2016-09-22T02:17:50.394Z,13.3
2016-09-22T02:18:51.086Z,13.38
2016-09-22T02:19:51.759Z,13.39
2016-09-22T02:20:52.437Z,13.39
2016-09-22T02:21:53.133Z,13.39
2016-09-22T02:22:53.811Z,13.38
2016-09-22T02:23:54.516Z,13.37
2016-09-22T02:24:55.191Z,13.38
2016-09-22T02:25:55.864Z,13.28
2016-09-22T02:26:56.536Z,13.25
2016-09-22T02:27:57.212Z,13.41
2016-09-22T02:28:57.880Z,13.37
2016-09-22T02:29:58.596Z,13.38
2016-09-22T02:30:59.277Z,13.41
2016-09-22T02:31:59.994Z,13.42
2016-09-22T02:33:00.673Z,13.38
2016-09-22T02:34:01.346Z,13.37
2016-09-22T02:35:02.050Z,13.3
2016-09-22T02:36:02.789Z,13.31
2016-09-22T02:37:03.473Z,13.31
2016-09-22T02:38:04.187Z,13.38
2016-09-22T02:39:04.860Z,13.46
2016-09-22T02:40:05.536Z,13.42
2016-09-22T02:41:06.269Z,13.46
2016-09-22T02:42:06.954Z,13.5
2016-09-22T02:43:07.651Z,13.49
2016-09-22T02:44:08.338Z,13.5
2016-09-22T02:45:09.051Z,13.5
2016-09-22T02:46:09.722Z,13.5
2016-09-22T02:47:10.447Z,13.49
2016-09-22T02:48:11.144Z,13.49
2016-09-22T02:49:11.832Z,13.46
2016-09-22T02:50:12.554Z,13.42
2016-09-22T02:51:13.238Z,13.46
2016-09-22T02:52:13.971Z,13.25
2016-09-22T02:53:14.670Z,13.35
2016-09-22T02:54:15.379Z,13.39
2016-09-22T02:55:16.065Z,13.28
2016-09-22T02:56:16.747Z,13.23
2016-09-22T02:57:17.464Z,13.28
2016-09-22T02:58:18.147Z,13.27
2016-09-22T02:59:18.844Z,13.3
2016-09-22T03:00:19.523Z,13.23
2016-09-22T03:01:20.218Z,13.25
2016-09-22T03:02:20.902Z,13.23
2016-09-22T03:03:21.597Z,13.25
2016-09-22T03:04:22.309Z,13.3
2016-09-22T03:05:22.986Z,13.37
2016-09-22T03:06:23.733Z,13.37
2016-09-22T03:07:24.479Z,13.28
2016-09-22T03:08:25.154Z,13.33
2016-09-22T03:09:25.825Z,13.44
2016-09-22T03:10:26.509Z,13.3
2016-09-22T03:11:27.225Z,13.38
2016-09-22T03:12:27.933Z,13.41
2016-09-22T03:13:28.618Z,13.5
2016-09-22T03:14:29.305Z,13.38
2016-09-22T03:15:29.990Z,13.47
2016-09-22T03:16:30.714Z,13.39
2016-09-22T03:17:31.408Z,13.49
2016-09-22T03:18:32.112Z,13.53
2016-09-22T03:19:32.807Z,13.49
2016-09-22T03:20:33.482Z,13.49
2016-09-22T03:21:34.175Z,13.5
2016-09-22T03:22:34.854Z,13.41
2016-09-22T03:23:35.543Z,13.38
2016-09-22T03:24:36.245Z,13.39
2016-09-22T03:25:36.913Z,13.39
2016-09-22T03:26:37.605Z,13.37
2016-09-22T03:27:38.285Z,13.28
2016-09-22T03:28:38.975Z,13.28
2016-09-22T03:29:39.677Z,13.25
2016-09-22T03:30:40.356Z,13.3
2016-09-22T03:31:41.091Z,13.27
2016-09-22T03:32:41.778Z,13.22
2016-09-22T03:33:42.462Z,13.2
2016-09-22T03:34:43.141Z,13.28
2016-09-22T03:35:43.817Z,13.25
2016-09-22T03:36:44.500Z,13.23
2016-09-22T03:37:45.207Z,13.39
2016-09-22T03:38:45.885Z,13.33
2016-09-22T03:39:46.572Z,13.38
2016-09-22T03:40:47.271Z,13.38
2016-09-22T03:41:48.013Z,13.38
2016-09-22T03:42:48.704Z,13.47
2016-09-22T03:43:49.402Z,13.42
2016-09-22T03:44:50.081Z,13.5
2016-09-22T03:45:50.800Z,13.47
2016-09-22T03:46:51.525Z,13.47
2016-09-22T03:47:52.255Z,13.47
2016-09-22T03:48:52.952Z,13.5
2016-09-22T03:49:53.636Z,13.46
2016-09-22T03:50:54.321Z,13.46
2016-09-22T03:51:55.054Z,13.46
2016-09-22T03:52:55.729Z,13.46
2016-09-22T03:53:56.423Z,13.44
2016-09-22T03:54:57.112Z,13.53
2016-09-22T03:55:57.788Z,13.54
2016-09-22T03:56:58.476Z,13.52
2016-09-22T03:57:59.187Z,13.44
2016-09-22T03:58:59.878Z,13.52
2016-09-22T04:00:00.562Z,13.37
2016-09-22T04:01:01.248Z,13.47
2016-09-22T04:02:01.943Z,13.37
2016-09-22T04:03:02.626Z,13.44
2016-09-22T04:04:03.330Z,13.44
2016-09-22T04:05:04.016Z,13.52
2016-09-22T04:06:04.734Z,13.53
2016-09-22T04:07:05.416Z,13.54
2016-09-22T04:08:06.117Z,13.46
2016-09-22T04:09:06.795Z,13.54
2016-09-22T04:10:07.471Z,13.47
2016-09-22T04:11:08.163Z,13.52
2016-09-22T04:12:08.833Z,13.53
2016-09-22T04:13:09.538Z,13.49
2016-09-22T04:14:10.213Z,13.46
2016-09-22T04:15:10.914Z,13.53
2016-09-22T04:16:11.600Z,13.52
2016-09-22T04:17:12.287Z,13.5
2016-09-22T04:18:12.965Z,13.47
2016-09-22T04:19:13.671Z,13.38
2016-09-22T04:20:14.389Z,13.35
2016-09-22T04:21:15.104Z,13.38
2016-09-22T04:22:15.801Z,13.31
2016-09-22T04:23:16.497Z,13.37
2016-09-22T04:24:17.176Z,13.27
2016-09-22T04:25:17.853Z,13.23
2016-09-22T04:26:18.528Z,13.33
2016-09-22T04:27:19.231Z,13.33
2016-09-22T04:28:19.916Z,13.3
2016-09-22T04:29:20.598Z,13.35
2016-09-22T04:30:21.299Z,13.35
2016-09-22T04:31:21.980Z,13.27
2016-09-22T04:32:22.666Z,13.37
2016-09-22T04:33:23.344Z,13.39
2016-09-22T04:34:24.017Z,13.28
2016-09-22T04:35:24.727Z,13.3
2016-09-22T04:36:25.405Z,13.23
2016-09-22T04:37:26.092Z,13.25
2016-09-22T04:38:26.788Z,13.3
2016-09-22T04:39:27.467Z,13.2
2016-09-22T04:40:28.151Z,13.18
2016-09-22T04:41:28.838Z,13.16
2016-09-22T04:42:29.533Z,13.11
2016-09-22T04:43:30.263Z,13.12
2016-09-22T04:44:30.999Z,13.11
2016-09-22T04:45:31.688Z,13.11
2016-09-22T04:46:32.376Z,13.12
2016-09-22T04:47:33.056Z,13.05
2016-09-22T04:48:33.736Z,13.05
2016-09-22T04:49:34.430Z,12.98
2016-09-22T04:50:35.132Z,12.94
2016-09-22T04:51:35.852Z,13
2016-09-22T04:52:36.563Z,13.04
2016-09-22T04:53:37.255Z,13.04
2016-09-22T04:54:37.943Z,13.05
2016-09-22T04:55:38.638Z,13
2016-09-22T04:56:39.306Z,12.97
2016-09-22T04:57:39.987Z,12.95
2016-09-22T04:58:40.693Z,12.91
2016-09-22T04:59:41.377Z,12.94
2016-09-22T05:00:42.061Z,12.94
2016-09-22T05:01:42.736Z,12.86
2016-09-22T05:02:43.445Z,12.95
2016-09-22T05:03:44.158Z,12.91
2016-09-22T05:04:44.854Z,12.94
2016-09-22T05:05:45.567Z,12.87
2016-09-22T05:06:46.254Z,12.94
2016-09-22T05:07:46.948Z,12.94
2016-09-22T05:08:47.636Z,12.93
2016-09-22T05:09:48.336Z,12.87
2016-09-22T05:10:49.019Z,13
2016-09-22T05:11:49.704Z,12.86
2016-09-22T05:12:50.404Z,12.85
2016-09-22T05:13:51.086Z,12.85
2016-09-22T05:14:51.767Z,12.87
2016-09-22T05:15:52.460Z,12.87
2016-09-22T05:16:53.130Z,12.86
2016-09-22T05:17:53.837Z,12.82
2016-09-22T05:18:54.528Z,12.91
2016-09-22T05:19:55.223Z,12.9
2016-09-22T05:20:55.909Z,12.87
2016-09-22T05:21:56.625Z,12.79
2016-09-22T05:22:57.307Z,12.86
2016-09-22T05:23:58.017Z,12.86
2016-09-22T05:24:58.694Z,12.82
2016-09-22T05:25:59.389Z,12.86
2016-09-22T05:27:00.085Z,12.86
2016-09-22T05:28:00.760Z,12.94
2016-09-22T05:29:01.456Z,12.9
2016-09-22T05:30:02.152Z,12.94
2016-09-22T05:31:02.867Z,12.95
2016-09-22T05:32:03.549Z,12.93
2016-09-22T05:33:04.249Z,12.82
2016-09-22T05:34:04.965Z,12.94
2016-09-22T05:35:05.660Z,12.93
2016-09-22T05:36:06.365Z,12.86
2016-09-22T05:37:07.074Z,12.83
2016-09-22T05:38:07.778Z,12.87
2016-09-22T05:39:08.564Z,12.75
2016-09-22T05:40:09.227Z,12.85
2016-09-22T05:41:09.928Z,12.87
2016-09-22T05:42:10.660Z,12.78
2016-09-22T05:43:11.418Z,12.86
2016-09-22T05:44:12.114Z,12.86
2016-09-22T05:45:12.823Z,12.87
2016-09-22T05:46:13.529Z,12.82
2016-09-22T05:47:14.282Z,12.85
2016-09-22T05:48:15.049Z,12.87
2016-09-22T05:49:15.755Z,13.03
2016-09-22T05:50:16.449Z,12.98
2016-09-22T05:51:17.200Z,13
2016-09-22T05:52:17.948Z,13.01
2016-09-22T05:53:18.679Z,13.04
2016-09-22T05:54:19.414Z,12.98
2016-09-22T05:55:20.135Z,13.03
2016-09-22T05:56:20.918Z,13.04
2016-09-22T05:57:21.917Z,13
2016-09-22T05:58:22.712Z,13.01
2016-09-22T05:59:23.435Z,13
2016-09-22T06:00:24.131Z,12.94
2016-09-22T06:01:24.837Z,13.01
2016-09-22T06:02:25.569Z,12.94
2016-09-22T06:03:26.297Z,13.12
2016-09-22T06:04:26.997Z,13.18
2016-09-22T06:05:27.701Z,13.11
2016-09-22T06:06:28.407Z,13.16
2016-09-22T06:07:29.102Z,13.19
2016-09-22T06:08:29.811Z,13.19
2016-09-22T06:09:30.514Z,13.22
2016-09-22T06:10:31.214Z,13.11
2016-09-22T06:11:31.903Z,13.18
2016-09-22T06:12:32.605Z,13.2
2016-09-22T06:13:33.315Z,13.16
2016-09-22T06:14:34.017Z,13.18
2016-09-22T06:15:34.708Z,13.19
2016-09-22T06:16:35.462Z,13.27
2016-09-22T06:17:36.172Z,13.27
2016-09-22T06:18:36.854Z,13.27
2016-09-22T06:19:37.539Z,13.33
2016-09-22T06:20:38.253Z,13.33
2016-09-22T06:21:38.964Z,13.41
2016-09-22T06:22:39.661Z,13.42
2016-09-22T06:23:40.360Z,13.49
2016-09-22T06:24:41.128Z,13.52
2016-09-22T06:25:41.810Z,13.5
2016-09-22T06:26:42.496Z,13.47
2016-09-22T06:27:43.205Z,13.42
2016-09-22T06:28:43.935Z,13.38
2016-09-22T06:29:44.643Z,13.42
2016-09-22T06:30:45.843Z,13.62
2016-09-22T06:31:46.556Z,13.65
2016-09-22T06:32:47.671Z,13.67
2016-09-22T06:33:48.620Z,13.57
2016-09-22T06:34:49.313Z,13.63
2016-09-22T06:35:50.410Z,13.72
2016-09-22T06:36:51.104Z,13.74
2016-09-22T06:37:51.993Z,13.78
2016-09-22T06:38:52.688Z,13.71
2016-09-22T06:39:53.382Z,13.75
2016-09-22T06:40:54.079Z,13.77
2016-09-22T06:41:54.791Z,13.89
2016-09-22T06:42:55.501Z,14.08
2016-09-22T06:43:56.235Z,14.22
2016-09-22T06:44:56.947Z,14.22
2016-09-22T06:45:57.656Z,14.29
2016-09-22T06:46:58.337Z,14.32
2016-09-22T06:47:59.035Z,14.48
2016-09-22T06:48:59.712Z,14.53
2016-09-22T06:50:00.414Z,14.51
2016-09-22T06:51:01.120Z,14.51
2016-09-22T06:52:01.813Z,14.53
2016-09-22T06:53:02.523Z,14.54
2016-09-22T06:54:03.219Z,14.7
2016-09-22T06:55:03.908Z,14.59
2016-09-22T06:56:04.606Z,14.72
2016-09-22T06:57:05.374Z,14.62
2016-09-22T06:58:06.164Z,14.59
2016-09-22T06:59:07.672Z,14.69
2016-09-22T07:00:09.199Z,14.79
2016-09-22T07:01:10.488Z,15.02
2016-09-22T07:02:11.411Z,15.07
2016-09-22T07:03:12.127Z,15.03
2016-09-22T07:04:13.459Z,15.07
2016-09-22T07:05:15.069Z,15.04
2016-09-22T07:06:16.068Z,14.82
2016-09-22T07:07:17.296Z,14.91
2016-09-22T07:08:17.998Z,14.92
2016-09-22T07:09:18.712Z,15.03
2016-09-22T07:10:19.401Z,15.1
2016-09-22T07:11:20.142Z,15.09
2016-09-22T07:12:20.833Z,15.11
2016-09-22T07:13:21.541Z,15.17
2016-09-22T07:14:22.229Z,15.15
2016-09-22T07:15:22.931Z,15.14
2016-09-22T07:16:23.655Z,15.04
2016-09-22T07:17:24.350Z,15
2016-09-22T07:18:25.059Z,14.99
2016-09-22T07:19:26.198Z,15
2016-09-22T07:20:26.900Z,14.97
2016-09-22T07:21:27.588Z,15
2016-09-22T07:22:28.363Z,14.86
2016-09-22T07:23:29.072Z,14.89
2016-09-22T07:24:29.772Z,14.85
2016-09-22T07:25:30.844Z,14.73
2016-09-22T07:26:32.113Z,14.72
2016-09-22T07:27:34.209Z,14.72
2016-09-22T07:28:34.930Z,14.7
2016-09-22T07:29:37.421Z,14.68
2016-09-22T07:30:38.421Z,14.59
2016-09-22T07:31:39.309Z,14.55
